Terminal Aerodrome Forecast
Issued by NWS Twin Cities, MN

Home | Current Version | Previous Version | Text Only | Print | Product List | Glossary On
Versions: 1 2 3 4 5 6 7 8 9 10 11 12 13 14
000
FTUS43 KMPX 252342
TAFEAU
TAF
KEAU 252342Z 2600/2624 26008KT P6SM SKC
     FM261000 VRB02KT 2SM BR SKC
     FM261300 30003KT P6SM SCT250=

USA.gov is the U.S. government's official web portal to all federal, state and local government web resources and services.